sensor_id;sensor_type;location;lat;lon;timestamp;temperature;humidity
44843;DHT22;31884;52.538;13.820;2022-12-20T00:01:09;4.00;99.90
44843;DHT22;31884;52.538;13.820;2022-12-20T00:03:35;4.00;99.90
44843;DHT22;31884;52.538;13.820;2022-12-20T00:06:00;4.00;99.90
44843;DHT22;31884;52.538;13.820;2022-12-20T00:08:26;4.00;99.90
44843;DHT22;31884;52.538;13.820;2022-12-20T00:10:51;4.00;99.90
44843;DHT22;31884;52.538;13.820;2022-12-20T00:13:17;4.00;99.90
44843;DHT22;31884;52.538;13.820;2022-12-20T00:15:42;4.00;99.90
44843;DHT22;31884;52.538;13.820;2022-12-20T00:18:08;4.00;99.90
44843;DHT22;31884;52.538;13.820;2022-12-20T00:20:33;4.10;99.90
44843;DHT22;31884;52.538;13.820;2022-12-20T00:22:59;4.00;99.90
44843;DHT22;31884;52.538;13.820;2022-12-20T00:25:25;4.10;99.90
44843;DHT22;31884;52.538;13.820;2022-12-20T00:27:50;4.10;99.90
44843;DHT22;31884;52.538;13.820;2022-12-20T00:30:17;4.10;99.90
44843;DHT22;31884;52.538;13.820;2022-12-20T00:32:43;4.10;99.90
44843;DHT22;31884;52.538;13.820;2022-12-20T00:35:10;4.10;99.90
44843;DHT22;31884;52.538;13.820;2022-12-20T00:37:36;4.10;99.90
44843;DHT22;31884;52.538;13.820;2022-12-20T00:40:03;4.10;99.90
44843;DHT22;31884;52.538;13.820;2022-12-20T00:42:29;4.10;99.90
44843;DHT22;31884;52.538;13.820;2022-12-20T00:44:54;4.10;99.90
44843;DHT22;31884;52.538;13.820;2022-12-20T00:47:20;4.10;99.90
44843;DHT22;31884;52.538;13.820;2022-12-20T00:49:46;4.20;99.90
44843;DHT22;31884;52.538;13.820;2022-12-20T00:52:11;4.20;99.90
44843;DHT22;31884;52.538;13.820;2022-12-20T00:54:36;4.20;99.90
44843;DHT22;31884;52.538;13.820;2022-12-20T00:57:02;4.20;99.90
44843;DHT22;31884;52.538;13.820;2022-12-20T00:59:27;4.20;99.90
44843;DHT22;31884;52.538;13.820;2022-12-20T01:01:53;4.20;99.90
44843;DHT22;31884;52.538;13.820;2022-12-20T01:04:18;4.20;99.90
44843;DHT22;31884;52.538;13.820;2022-12-20T01:06:44;4.20;99.90
44843;DHT22;31884;52.538;13.820;2022-12-20T01:09:10;4.20;99.90
44843;DHT22;31884;52.538;13.820;2022-12-20T01:11:37;4.30;99.90
44843;DHT22;31884;52.538;13.820;2022-12-20T01:14:09;4.20;99.90
44843;DHT22;31884;52.538;13.820;2022-12-20T01:16:41;4.30;99.90
44843;DHT22;31884;52.538;13.820;2022-12-20T01:19:10;4.30;99.90
44843;DHT22;31884;52.538;13.820;2022-12-20T01:21:36;4.30;99.90
44843;DHT22;31884;52.538;13.820;2022-12-20T01:24:04;4.30;99.90
44843;DHT22;31884;52.538;13.820;2022-12-20T01:26:29;4.30;99.90
44843;DHT22;31884;52.538;13.820;2022-12-20T01:28:58;4.30;99.90
44843;DHT22;31884;52.538;13.820;2022-12-20T01:31:25;4.30;99.90
44843;DHT22;31884;52.538;13.820;2022-12-20T01:33:51;4.30;99.90
44843;DHT22;31884;52.538;13.820;2022-12-20T01:36:19;4.30;99.90
44843;DHT22;31884;52.538;13.820;2022-12-20T01:38:45;4.30;99.90
44843;DHT22;31884;52.538;13.820;2022-12-20T01:41:18;4.30;99.90
44843;DHT22;31884;52.538;13.820;2022-12-20T01:44:01;4.30;99.90
44843;DHT22;31884;52.538;13.820;2022-12-20T01:46:34;4.30;99.90
44843;DHT22;31884;52.538;13.820;2022-12-20T01:49:08;4.20;99.90
44843;DHT22;31884;52.538;13.820;2022-12-20T01:51:42;4.20;99.90
44843;DHT22;31884;52.538;13.820;2022-12-20T01:54:22;4.20;99.90
44843;DHT22;31884;52.538;13.820;2022-12-20T01:56:52;4.30;99.90
44843;DHT22;31884;52.538;13.820;2022-12-20T01:59:21;4.20;99.90
44843;DHT22;31884;52.538;13.820;2022-12-20T02:01:46;4.20;99.90
44843;DHT22;31884;52.538;13.820;2022-12-20T02:04:12;4.20;99.90
44843;DHT22;31884;52.538;13.820;2022-12-20T02:06:37;4.20;99.90
44843;DHT22;31884;52.538;13.820;2022-12-20T02:09:03;4.20;99.90
44843;DHT22;31884;52.538;13.820;2022-12-20T02:20:16;4.20;99.90
44843;DHT22;31884;52.538;13.820;2022-12-20T02:23:15;4.20;99.90
44843;DHT22;31884;52.538;13.820;2022-12-20T02:31:30;4.30;99.90
44843;DHT22;31884;52.538;13.820;2022-12-20T02:33:58;4.30;99.90
44843;DHT22;31884;52.538;13.820;2022-12-20T02:36:24;4.30;99.90
44843;DHT22;31884;52.538;13.820;2022-12-20T02:38:50;4.30;99.90
44843;DHT22;31884;52.538;13.820;2022-12-20T02:41:26;4.30;99.90
44843;DHT22;31884;52.538;13.820;2022-12-20T02:44:06;4.40;99.90
44843;DHT22;31884;52.538;13.820;2022-12-20T02:46:53;4.40;99.90
44843;DHT22;31884;52.538;13.820;2022-12-20T02:49:22;4.40;99.90
44843;DHT22;31884;52.538;13.820;2022-12-20T02:51:51;4.50;99.90
44843;DHT22;31884;52.538;13.820;2022-12-20T02:54:18;4.50;99.90
44843;DHT22;31884;52.538;13.820;2022-12-20T02:56:49;4.50;99.90
44843;DHT22;31884;52.538;13.820;2022-12-20T02:59:20;4.60;99.90
44843;DHT22;31884;52.538;13.820;2022-12-20T03:01:53;4.60;99.90
44843;DHT22;31884;52.538;13.820;2022-12-20T03:04:24;4.60;99.90
44843;DHT22;31884;52.538;13.820;2022-12-20T03:07:06;4.60;99.90
44843;DHT22;31884;52.538;13.820;2022-12-20T03:09:34;4.60;99.90
44843;DHT22;31884;52.538;13.820;2022-12-20T03:12:01;4.70;99.90
44843;DHT22;31884;52.538;13.820;2022-12-20T03:14:27;4.70;99.90
44843;DHT22;31884;52.538;13.820;2022-12-20T03:16:52;4.70;99.90
44843;DHT22;31884;52.538;13.820;2022-12-20T03:19:18;4.60;99.90
44843;DHT22;31884;52.538;13.820;2022-12-20T03:21:44;4.60;99.90
44843;DHT22;31884;52.538;13.820;2022-12-20T03:24:09;4.60;99.90
44843;DHT22;31884;52.538;13.820;2022-12-20T03:26:36;4.60;99.90
44843;DHT22;31884;52.538;13.820;2022-12-20T03:29:02;4.50;99.90
44843;DHT22;31884;52.538;13.820;2022-12-20T03:31:28;4.40;99.90
44843;DHT22;31884;52.538;13.820;2022-12-20T03:33:53;4.40;99.90
44843;DHT22;31884;52.538;13.820;2022-12-20T03:36:19;4.40;99.90
44843;DHT22;31884;52.538;13.820;2022-12-20T03:38:48;4.40;99.90
44843;DHT22;31884;52.538;13.820;2022-12-20T03:41:14;4.40;99.90
44843;DHT22;31884;52.538;13.820;2022-12-20T03:43:39;4.50;99.90
44843;DHT22;31884;52.538;13.820;2022-12-20T03:46:05;4.50;99.90
44843;DHT22;31884;52.538;13.820;2022-12-20T03:48:30;4.50;99.90
44843;DHT22;31884;52.538;13.820;2022-12-20T03:50:56;4.50;99.90
44843;DHT22;31884;52.538;13.820;2022-12-20T03:53:21;4.50;99.90
44843;DHT22;31884;52.538;13.820;2022-12-20T03:55:47;4.50;99.90
44843;DHT22;31884;52.538;13.820;2022-12-20T03:58:12;4.50;99.90
44843;DHT22;31884;52.538;13.820;2022-12-20T04:00:38;4.60;99.90
44843;DHT22;31884;52.538;13.820;2022-12-20T04:03:03;4.60;99.90
44843;DHT22;31884;52.538;13.820;2022-12-20T04:05:29;4.60;99.90
44843;DHT22;31884;52.538;13.820;2022-12-20T04:07:54;4.70;99.90
44843;DHT22;31884;52.538;13.820;2022-12-20T04:10:20;4.70;99.90
44843;DHT22;31884;52.538;13.820;2022-12-20T04:12:45;4.70;99.90
44843;DHT22;31884;52.538;13.820;2022-12-20T04:15:10;4.70;99.90
44843;DHT22;31884;52.538;13.820;2022-12-20T04:17:36;4.80;99.90
44843;DHT22;31884;52.538;13.820;2022-12-20T04:20:01;4.80;99.90
44843;DHT22;31884;52.538;13.820;2022-12-20T04:22:47;4.80;99.90
44843;DHT22;31884;52.538;13.820;2022-12-20T04:25:13;4.80;99.90
44843;DHT22;31884;52.538;13.820;2022-12-20T04:27:39;4.70;99.90
44843;DHT22;31884;52.538;13.820;2022-12-20T04:30:05;4.70;99.90
44843;DHT22;31884;52.538;13.820;2022-12-20T04:32:31;4.70;99.90
44843;DHT22;31884;52.538;13.820;2022-12-20T04:34:56;4.80;99.90
44843;DHT22;31884;52.538;13.820;2022-12-20T04:37:21;4.80;99.90
44843;DHT22;31884;52.538;13.820;2022-12-20T04:39:47;4.80;99.90
44843;DHT22;31884;52.538;13.820;2022-12-20T04:42:12;4.80;99.90
44843;DHT22;31884;52.538;13.820;2022-12-20T04:44:38;4.80;99.90
44843;DHT22;31884;52.538;13.820;2022-12-20T04:47:03;4.80;99.90
44843;DHT22;31884;52.538;13.820;2022-12-20T04:49:29;4.90;99.90
44843;DHT22;31884;52.538;13.820;2022-12-20T04:51:54;4.80;99.90
44843;DHT22;31884;52.538;13.820;2022-12-20T04:54:40;4.70;99.90
44843;DHT22;31884;52.538;13.820;2022-12-20T04:57:05;4.70;99.90
44843;DHT22;31884;52.538;13.820;2022-12-20T04:59:31;4.60;99.90
44843;DHT22;31884;52.538;13.820;2022-12-20T05:01:56;4.60;99.90
44843;DHT22;31884;52.538;13.820;2022-12-20T05:04:22;4.50;99.90
44843;DHT22;31884;52.538;13.820;2022-12-20T05:06:47;4.40;99.90
44843;DHT22;31884;52.538;13.820;2022-12-20T05:09:13;4.30;99.90
44843;DHT22;31884;52.538;13.820;2022-12-20T05:11:38;4.20;99.90
44843;DHT22;31884;52.538;13.820;2022-12-20T05:14:03;4.10;99.90
44843;DHT22;31884;52.538;13.820;2022-12-20T05:16:29;4.00;99.90
44843;DHT22;31884;52.538;13.820;2022-12-20T05:18:54;3.90;99.90
44843;DHT22;31884;52.538;13.820;2022-12-20T05:21:20;3.90;99.90
44843;DHT22;31884;52.538;13.820;2022-12-20T05:24:04;3.70;99.90
44843;DHT22;31884;52.538;13.820;2022-12-20T05:26:48;3.70;99.90
44843;DHT22;31884;52.538;13.820;2022-12-20T05:29:14;3.60;99.90
44843;DHT22;31884;52.538;13.820;2022-12-20T05:31:41;3.50;99.90
44843;DHT22;31884;52.538;13.820;2022-12-20T05:34:06;3.50;99.90
44843;DHT22;31884;52.538;13.820;2022-12-20T05:36:32;3.40;99.90
44843;DHT22;31884;52.538;13.820;2022-12-20T05:38:57;3.40;99.90
44843;DHT22;31884;52.538;13.820;2022-12-20T05:41:22;3.30;99.90
44843;DHT22;31884;52.538;13.820;2022-12-20T05:43:48;3.20;99.90
44843;DHT22;31884;52.538;13.820;2022-12-20T05:46:13;3.20;99.90
44843;DHT22;31884;52.538;13.820;2022-12-20T05:48:39;3.10;99.90
44843;DHT22;31884;52.538;13.820;2022-12-20T05:51:05;3.10;99.90
44843;DHT22;31884;52.538;13.820;2022-12-20T05:53:30;3.10;99.90
44843;DHT22;31884;52.538;13.820;2022-12-20T05:55:56;3.10;99.90
44843;DHT22;31884;52.538;13.820;2022-12-20T05:58:21;3.20;99.90
44843;DHT22;31884;52.538;13.820;2022-12-20T06:00:47;3.20;99.90
44843;DHT22;31884;52.538;13.820;2022-12-20T06:03:13;3.20;99.90
44843;DHT22;31884;52.538;13.820;2022-12-20T06:05:40;3.30;99.90
44843;DHT22;31884;52.538;13.820;2022-12-20T06:08:06;3.30;99.90
44843;DHT22;31884;52.538;13.820;2022-12-20T06:10:33;3.40;99.90
44843;DHT22;31884;52.538;13.820;2022-12-20T06:13:00;3.50;99.90
44843;DHT22;31884;52.538;13.820;2022-12-20T06:15:25;3.50;99.90
44843;DHT22;31884;52.538;13.820;2022-12-20T06:17:51;3.50;99.90
44843;DHT22;31884;52.538;13.820;2022-12-20T06:20:17;3.50;99.90
44843;DHT22;31884;52.538;13.820;2022-12-20T06:22:42;3.50;99.90
44843;DHT22;31884;52.538;13.820;2022-12-20T06:25:08;3.60;99.90
44843;DHT22;31884;52.538;13.820;2022-12-20T06:27:35;3.60;99.90
44843;DHT22;31884;52.538;13.820;2022-12-20T06:30:01;3.60;99.90
44843;DHT22;31884;52.538;13.820;2022-12-20T06:32:26;3.70;99.90
44843;DHT22;31884;52.538;13.820;2022-12-20T06:34:51;3.70;99.90
44843;DHT22;31884;52.538;13.820;2022-12-20T06:37:17;3.80;99.90
44843;DHT22;31884;52.538;13.820;2022-12-20T06:39:42;3.80;99.90
44843;DHT22;31884;52.538;13.820;2022-12-20T06:42:08;3.90;99.90
44843;DHT22;31884;52.538;13.820;2022-12-20T06:44:33;4.00;99.90
44843;DHT22;31884;52.538;13.820;2022-12-20T06:47:00;4.00;99.90
44843;DHT22;31884;52.538;13.820;2022-12-20T06:49:26;4.10;99.90
44843;DHT22;31884;52.538;13.820;2022-12-20T06:51:51;4.20;99.90
44843;DHT22;31884;52.538;13.820;2022-12-20T06:54:17;4.20;99.90
44843;DHT22;31884;52.538;13.820;2022-12-20T06:56:42;4.30;99.90
44843;DHT22;31884;52.538;13.820;2022-12-20T06:59:07;4.30;99.90
44843;DHT22;31884;52.538;13.820;2022-12-20T07:01:33;4.40;99.90
44843;DHT22;31884;52.538;13.820;2022-12-20T07:03:58;4.40;99.90
44843;DHT22;31884;52.538;13.820;2022-12-20T07:06:24;4.40;99.90
44843;DHT22;31884;52.538;13.820;2022-12-20T07:08:51;4.40;99.90
44843;DHT22;31884;52.538;13.820;2022-12-20T07:11:16;4.50;99.90
44843;DHT22;31884;52.538;13.820;2022-12-20T07:13:42;4.50;99.90
44843;DHT22;31884;52.538;13.820;2022-12-20T07:16:08;4.50;99.90
44843;DHT22;31884;52.538;13.820;2022-12-20T07:18:33;4.50;99.90
44843;DHT22;31884;52.538;13.820;2022-12-20T07:21:01;4.60;99.90
44843;DHT22;31884;52.538;13.820;2022-12-20T07:23:27;4.60;99.90
44843;DHT22;31884;52.538;13.820;2022-12-20T07:25:56;4.70;99.90
44843;DHT22;31884;52.538;13.820;2022-12-20T07:28:23;4.70;99.90
44843;DHT22;31884;52.538;13.820;2022-12-20T07:30:49;4.70;99.90
44843;DHT22;31884;52.538;13.820;2022-12-20T07:33:14;4.80;99.90
44843;DHT22;31884;52.538;13.820;2022-12-20T07:35:40;4.80;99.90
44843;DHT22;31884;52.538;13.820;2022-12-20T07:38:05;4.80;99.90
44843;DHT22;31884;52.538;13.820;2022-12-20T07:40:31;4.80;99.90
44843;DHT22;31884;52.538;13.820;2022-12-20T07:42:56;4.90;99.90
44843;DHT22;31884;52.538;13.820;2022-12-20T07:45:22;4.90;99.90
44843;DHT22;31884;52.538;13.820;2022-12-20T07:47:47;5.00;99.90
44843;DHT22;31884;52.538;13.820;2022-12-20T07:50:13;5.00;99.90
44843;DHT22;31884;52.538;13.820;2022-12-20T07:52:41;5.00;99.90
44843;DHT22;31884;52.538;13.820;2022-12-20T07:55:10;5.00;99.90
44843;DHT22;31884;52.538;13.820;2022-12-20T07:57:41;5.10;99.90
44843;DHT22;31884;52.538;13.820;2022-12-20T08:00:07;5.10;99.90
44843;DHT22;31884;52.538;13.820;2022-12-20T08:02:37;5.10;99.90
44843;DHT22;31884;52.538;13.820;2022-12-20T08:05:06;5.10;99.90
44843;DHT22;31884;52.538;13.820;2022-12-20T08:07:33;5.10;99.90
44843;DHT22;31884;52.538;13.820;2022-12-20T08:09:59;5.20;99.90
44843;DHT22;31884;52.538;13.820;2022-12-20T08:12:26;5.20;99.90
44843;DHT22;31884;52.538;13.820;2022-12-20T08:14:54;5.30;99.90
44843;DHT22;31884;52.538;13.820;2022-12-20T08:17:21;5.30;99.90
44843;DHT22;31884;52.538;13.820;2022-12-20T08:19:47;5.30;99.90
44843;DHT22;31884;52.538;13.820;2022-12-20T08:22:13;5.30;99.90
44843;DHT22;31884;52.538;13.820;2022-12-20T08:24:39;5.40;99.90
44843;DHT22;31884;52.538;13.820;2022-12-20T08:27:04;5.40;99.90
44843;DHT22;31884;52.538;13.820;2022-12-20T08:29:30;5.40;99.90
44843;DHT22;31884;52.538;13.820;2022-12-20T08:31:55;5.50;99.90
44843;DHT22;31884;52.538;13.820;2022-12-20T08:34:21;5.50;99.90
44843;DHT22;31884;52.538;13.820;2022-12-20T08:36:46;5.60;99.90
44843;DHT22;31884;52.538;13.820;2022-12-20T08:39:12;5.70;99.90
44843;DHT22;31884;52.538;13.820;2022-12-20T08:41:38;5.70;99.90
44843;DHT22;31884;52.538;13.820;2022-12-20T08:44:04;5.80;99.90
44843;DHT22;31884;52.538;13.820;2022-12-20T08:46:30;5.80;99.90
44843;DHT22;31884;52.538;13.820;2022-12-20T08:48:55;5.90;99.90
44843;DHT22;31884;52.538;13.820;2022-12-20T08:51:21;6.00;99.90
44843;DHT22;31884;52.538;13.820;2022-12-20T08:53:46;6.00;99.90
44843;DHT22;31884;52.538;13.820;2022-12-20T08:56:14;6.00;99.90
44843;DHT22;31884;52.538;13.820;2022-12-20T08:58:41;6.10;99.90
44843;DHT22;31884;52.538;13.820;2022-12-20T09:01:12;6.10;99.90
44843;DHT22;31884;52.538;13.820;2022-12-20T09:03:38;6.20;99.90
44843;DHT22;31884;52.538;13.820;2022-12-20T09:06:06;6.20;99.90
44843;DHT22;31884;52.538;13.820;2022-12-20T09:08:33;6.30;99.90
44843;DHT22;31884;52.538;13.820;2022-12-20T09:11:23;6.30;99.90
44843;DHT22;31884;52.538;13.820;2022-12-20T09:13:50;6.30;99.90
44843;DHT22;31884;52.538;13.820;2022-12-20T09:16:18;6.30;99.90
44843;DHT22;31884;52.538;13.820;2022-12-20T09:18:48;6.40;99.90
44843;DHT22;31884;52.538;13.820;2022-12-20T09:21:14;6.40;99.90
44843;DHT22;31884;52.538;13.820;2022-12-20T09:23:39;6.50;99.90
44843;DHT22;31884;52.538;13.820;2022-12-20T09:26:07;6.50;99.90
44843;DHT22;31884;52.538;13.820;2022-12-20T09:28:34;6.60;99.90
44843;DHT22;31884;52.538;13.820;2022-12-20T09:31:01;6.60;99.90
44843;DHT22;31884;52.538;13.820;2022-12-20T09:33:28;6.70;99.90
44843;DHT22;31884;52.538;13.820;2022-12-20T09:35:55;6.70;99.90
44843;DHT22;31884;52.538;13.820;2022-12-20T09:38:21;6.80;99.90
44843;DHT22;31884;52.538;13.820;2022-12-20T09:40:53;6.80;99.90
44843;DHT22;31884;52.538;13.820;2022-12-20T09:43:20;6.80;99.90
44843;DHT22;31884;52.538;13.820;2022-12-20T09:45:49;6.90;99.90
44843;DHT22;31884;52.538;13.820;2022-12-20T09:48:21;6.90;99.90
44843;DHT22;31884;52.538;13.820;2022-12-20T09:53:42;7.10;99.90
44843;DHT22;31884;52.538;13.820;2022-12-20T09:56:20;7.10;99.90
44843;DHT22;31884;52.538;13.820;2022-12-20T09:59:07;7.20;99.90
44843;DHT22;31884;52.538;13.820;2022-12-20T10:01:35;7.40;99.90
44843;DHT22;31884;52.538;13.820;2022-12-20T10:04:11;7.50;99.90
44843;DHT22;31884;52.538;13.820;2022-12-20T10:12:00;7.90;99.90
44843;DHT22;31884;52.538;13.820;2022-12-20T10:14:52;8.00;99.90
44843;DHT22;31884;52.538;13.820;2022-12-20T10:17:44;8.10;99.90
44843;DHT22;31884;52.538;13.820;2022-12-20T10:20:22;8.10;99.90
44843;DHT22;31884;52.538;13.820;2022-12-20T10:23:13;8.10;99.90
44843;DHT22;31884;52.538;13.820;2022-12-20T10:25:41;8.20;99.90
44843;DHT22;31884;52.538;13.820;2022-12-20T10:28:14;8.30;99.90
44843;DHT22;31884;52.538;13.820;2022-12-20T10:30:41;8.30;99.90
44843;DHT22;31884;52.538;13.820;2022-12-20T10:33:19;8.30;99.90
44843;DHT22;31884;52.538;13.820;2022-12-20T10:35:45;8.30;99.90
44843;DHT22;31884;52.538;13.820;2022-12-20T10:38:13;8.40;99.90
44843;DHT22;31884;52.538;13.820;2022-12-20T10:40:59;8.40;99.90
44843;DHT22;31884;52.538;13.820;2022-12-20T10:43:26;8.40;99.90
44843;DHT22;31884;52.538;13.820;2022-12-20T10:46:06;8.40;99.90
44843;DHT22;31884;52.538;13.820;2022-12-20T10:48:35;8.40;99.90
44843;DHT22;31884;52.538;13.820;2022-12-20T10:51:14;8.40;99.90
44843;DHT22;31884;52.538;13.820;2022-12-20T10:54:01;8.40;99.90
44843;DHT22;31884;52.538;13.820;2022-12-20T10:56:32;8.40;99.90
44843;DHT22;31884;52.538;13.820;2022-12-20T11:01:47;8.40;99.90
44843;DHT22;31884;52.538;13.820;2022-12-20T11:04:27;8.30;99.90
44843;DHT22;31884;52.538;13.820;2022-12-20T11:06:53;8.30;99.90
44843;DHT22;31884;52.538;13.820;2022-12-20T11:09:29;8.30;99.90
44843;DHT22;31884;52.538;13.820;2022-12-20T11:14:30;8.40;99.90
44843;DHT22;31884;52.538;13.820;2022-12-20T11:16:58;8.40;99.90
44843;DHT22;31884;52.538;13.820;2022-12-20T11:19:44;8.50;99.90
44843;DHT22;31884;52.538;13.820;2022-12-20T11:22:31;8.40;99.90
44843;DHT22;31884;52.538;13.820;2022-12-20T11:25:16;8.50;99.90
44843;DHT22;31884;52.538;13.820;2022-12-20T11:28:09;8.50;99.90
44843;DHT22;31884;52.538;13.820;2022-12-20T11:31:13;8.40;99.90
44843;DHT22;31884;52.538;13.820;2022-12-20T11:33:57;8.40;99.90
44843;DHT22;31884;52.538;13.820;2022-12-20T11:36:46;8.40;99.90
44843;DHT22;31884;52.538;13.820;2022-12-20T11:42:32;8.30;99.90
44843;DHT22;31884;52.538;13.820;2022-12-20T11:45:14;8.20;99.90
44843;DHT22;31884;52.538;13.820;2022-12-20T11:53:44;8.20;99.90
44843;DHT22;31884;52.538;13.820;2022-12-20T11:56:21;8.30;99.90
44843;DHT22;31884;52.538;13.820;2022-12-20T11:58:54;8.20;99.90
44843;DHT22;31884;52.538;13.820;2022-12-20T12:01:25;8.20;99.90
44843;DHT22;31884;52.538;13.820;2022-12-20T12:04:16;8.20;99.90
44843;DHT22;31884;52.538;13.820;2022-12-20T12:07:08;8.20;99.90
44843;DHT22;31884;52.538;13.820;2022-12-20T12:12:32;8.30;99.90
44843;DHT22;31884;52.538;13.820;2022-12-20T12:15:33;8.40;99.90
44843;DHT22;31884;52.538;13.820;2022-12-20T12:23:48;8.20;99.90
44843;DHT22;31884;52.538;13.820;2022-12-20T12:26:24;8.20;99.90
44843;DHT22;31884;52.538;13.820;2022-12-20T12:28:54;8.20;99.90
44843;DHT22;31884;52.538;13.820;2022-12-20T12:31:34;8.10;99.90
44843;DHT22;31884;52.538;13.820;2022-12-20T12:36:46;8.10;99.90
44843;DHT22;31884;52.538;13.820;2022-12-20T12:42:16;7.90;99.90
44843;DHT22;31884;52.538;13.820;2022-12-20T12:44:59;7.80;99.90
44843;DHT22;31884;52.538;13.820;2022-12-20T12:47:39;7.80;99.90
44843;DHT22;31884;52.538;13.820;2022-12-20T12:50:27;7.70;99.90
44843;DHT22;31884;52.538;13.820;2022-12-20T12:52:56;7.60;99.90
44843;DHT22;31884;52.538;13.820;2022-12-20T12:55:35;7.50;99.90
44843;DHT22;31884;52.538;13.820;2022-12-20T13:01:05;7.50;99.90
44843;DHT22;31884;52.538;13.820;2022-12-20T13:03:44;7.50;99.90
44843;DHT22;31884;52.538;13.820;2022-12-20T13:09:16;7.40;99.90
44843;DHT22;31884;52.538;13.820;2022-12-20T13:11:42;7.40;99.90
44843;DHT22;31884;52.538;13.820;2022-12-20T13:16:50;7.40;99.90
44843;DHT22;31884;52.538;13.820;2022-12-20T13:30:01;7.20;99.90
44843;DHT22;31884;52.538;13.820;2022-12-20T13:32:56;7.10;99.90
44843;DHT22;31884;52.538;13.820;2022-12-20T13:37:57;7.10;99.90
44843;DHT22;31884;52.538;13.820;2022-12-20T13:43:29;7.00;99.90
44843;DHT22;31884;52.538;13.820;2022-12-20T13:48:38;7.00;99.90
44843;DHT22;31884;52.538;13.820;2022-12-20T13:51:06;7.00;99.90
44843;DHT22;31884;52.538;13.820;2022-12-20T13:53:33;7.00;99.90
44843;DHT22;31884;52.538;13.820;2022-12-20T13:56:40;7.00;99.90
44843;DHT22;31884;52.538;13.820;2022-12-20T13:59:11;7.00;99.90
44843;DHT22;31884;52.538;13.820;2022-12-20T14:01:54;7.00;99.90
44843;DHT22;31884;52.538;13.820;2022-12-20T14:04:20;6.90;99.90
44843;DHT22;31884;52.538;13.820;2022-12-20T14:06:55;6.90;99.90
44843;DHT22;31884;52.538;13.820;2022-12-20T14:09:35;6.90;99.90
44843;DHT22;31884;52.538;13.820;2022-12-20T14:12:09;6.90;99.90
44843;DHT22;31884;52.538;13.820;2022-12-20T14:14:43;6.90;99.90
44843;DHT22;31884;52.538;13.820;2022-12-20T14:19:42;6.90;99.90
44843;DHT22;31884;52.538;13.820;2022-12-20T14:22:10;6.80;99.90
44843;DHT22;31884;52.538;13.820;2022-12-20T14:24:38;6.80;99.90
44843;DHT22;31884;52.538;13.820;2022-12-20T14:27:04;6.80;99.90
44843;DHT22;31884;52.538;13.820;2022-12-20T14:29:30;6.80;99.90
44843;DHT22;31884;52.538;13.820;2022-12-20T14:31:56;6.80;99.90
44843;DHT22;31884;52.538;13.820;2022-12-20T14:34:29;6.70;99.90
44843;DHT22;31884;52.538;13.820;2022-12-20T14:39:54;6.70;99.90
44843;DHT22;31884;52.538;13.820;2022-12-20T14:42:20;6.70;99.90
44843;DHT22;31884;52.538;13.820;2022-12-20T14:44:46;6.70;99.90
44843;DHT22;31884;52.538;13.820;2022-12-20T14:47:25;6.60;99.90
44843;DHT22;31884;52.538;13.820;2022-12-20T14:49:56;6.60;99.90
44843;DHT22;31884;52.538;13.820;2022-12-20T14:52:34;6.60;99.90
44843;DHT22;31884;52.538;13.820;2022-12-20T14:55:06;6.60;99.90
44843;DHT22;31884;52.538;13.820;2022-12-20T15:08:24;6.40;99.90
44843;DHT22;31884;52.538;13.820;2022-12-20T15:13:40;6.30;99.90
44843;DHT22;31884;52.538;13.820;2022-12-20T15:16:16;6.30;99.90
44843;DHT22;31884;52.538;13.820;2022-12-20T15:18:42;6.20;99.90
44843;DHT22;31884;52.538;13.820;2022-12-20T15:21:27;6.20;99.90
44843;DHT22;31884;52.538;13.820;2022-12-20T15:23:54;6.20;99.90
44843;DHT22;31884;52.538;13.820;2022-12-20T15:26:23;6.10;99.90
44843;DHT22;31884;52.538;13.820;2022-12-20T15:28:48;6.10;99.90
44843;DHT22;31884;52.538;13.820;2022-12-20T15:31:16;6.10;99.90
44843;DHT22;31884;52.538;13.820;2022-12-20T15:33:43;6.00;99.90
44843;DHT22;31884;52.538;13.820;2022-12-20T15:38:40;6.00;99.90
44843;DHT22;31884;52.538;13.820;2022-12-20T15:41:27;6.00;99.90
44843;DHT22;31884;52.538;13.820;2022-12-20T15:43:59;6.00;99.90
44843;DHT22;31884;52.538;13.820;2022-12-20T15:46:26;6.00;99.90
44843;DHT22;31884;52.538;13.820;2022-12-20T15:48:52;6.00;99.90
44843;DHT22;31884;52.538;13.820;2022-12-20T15:51:23;6.00;99.90
44843;DHT22;31884;52.538;13.820;2022-12-20T15:53:50;5.90;99.90
44843;DHT22;31884;52.538;13.820;2022-12-20T15:56:18;5.90;99.90
44843;DHT22;31884;52.538;13.820;2022-12-20T15:58:46;5.90;99.90
44843;DHT22;31884;52.538;13.820;2022-12-20T16:01:15;5.90;99.90
44843;DHT22;31884;52.538;13.820;2022-12-20T16:03:42;5.90;99.90
44843;DHT22;31884;52.538;13.820;2022-12-20T16:06:10;5.90;99.90
44843;DHT22;31884;52.538;13.820;2022-12-20T16:08:37;5.90;99.90
44843;DHT22;31884;52.538;13.820;2022-12-20T16:11:05;5.90;99.90
44843;DHT22;31884;52.538;13.820;2022-12-20T16:13:30;5.90;99.90
44843;DHT22;31884;52.538;13.820;2022-12-20T16:15:56;5.90;99.90
44843;DHT22;31884;52.538;13.820;2022-12-20T16:18:21;5.90;99.90
44843;DHT22;31884;52.538;13.820;2022-12-20T16:20:47;5.90;99.90
44843;DHT22;31884;52.538;13.820;2022-12-20T16:23:19;5.90;99.90
44843;DHT22;31884;52.538;13.820;2022-12-20T16:25:47;5.90;99.90
44843;DHT22;31884;52.538;13.820;2022-12-20T16:28:13;5.90;99.90
44843;DHT22;31884;52.538;13.820;2022-12-20T16:30:39;5.90;99.90
44843;DHT22;31884;52.538;13.820;2022-12-20T16:33:05;5.90;99.90
44843;DHT22;31884;52.538;13.820;2022-12-20T16:35:34;6.00;99.90
44843;DHT22;31884;52.538;13.820;2022-12-20T16:38:03;6.00;99.90
44843;DHT22;31884;52.538;13.820;2022-12-20T16:40:31;6.00;99.90
44843;DHT22;31884;52.538;13.820;2022-12-20T16:42:58;6.00;99.90
44843;DHT22;31884;52.538;13.820;2022-12-20T16:45:27;6.00;99.90
44843;DHT22;31884;52.538;13.820;2022-12-20T16:47:53;6.00;99.90
44843;DHT22;31884;52.538;13.820;2022-12-20T16:50:21;6.00;99.90
44843;DHT22;31884;52.538;13.820;2022-12-20T16:52:47;6.00;99.90
44843;DHT22;31884;52.538;13.820;2022-12-20T16:55:19;6.00;99.90
44843;DHT22;31884;52.538;13.820;2022-12-20T16:57:45;6.00;99.90
44843;DHT22;31884;52.538;13.820;2022-12-20T17:00:24;6.00;99.90
44843;DHT22;31884;52.538;13.820;2022-12-20T17:02:51;6.00;99.90
44843;DHT22;31884;52.538;13.820;2022-12-20T17:05:27;6.00;99.90
44843;DHT22;31884;52.538;13.820;2022-12-20T17:07:53;6.00;99.90
44843;DHT22;31884;52.538;13.820;2022-12-20T17:10:19;5.90;99.90
44843;DHT22;31884;52.538;13.820;2022-12-20T17:12:45;5.90;99.90
44843;DHT22;31884;52.538;13.820;2022-12-20T17:15:21;5.90;99.90
44843;DHT22;31884;52.538;13.820;2022-12-20T17:17:48;5.90;99.90
44843;DHT22;31884;52.538;13.820;2022-12-20T17:20:15;5.80;99.90
44843;DHT22;31884;52.538;13.820;2022-12-20T17:22:41;5.80;99.90
44843;DHT22;31884;52.538;13.820;2022-12-20T17:25:20;5.80;99.90